Clyattville, Georgia
Current Conditions -  °F | °C
As of 11:53 AM on Sunday 23 Nov 2014 (Local Time) from KVLD Reporting Station
Haze Haze  
Wind Chill: 71°   Ceiling: 600
Heat Index: 71°   Visibility: 6mi
Dew Point: 69°   Wind: 12mph
Humidity: 93%   Direction: 170°S
Pressure: 29.92"   Gusts: NA
Location:  30.7579°N, 83.3062°W
Report Text: KVLD 231653Z 17010KT 6SM BR OVC006 22/21 A2992 RMK AO2 RAB09E41 SLP137 P0000 T02170206 $
Loading
Personal Weather Stations






























Interactive Weather Map New forecast layout! Learn more

10-Day Weather Forecast

Advertisements
Track Severe Weather on mobile